Time,TemperatureF,DewpointF,PressureIn,WindDirection,WindDirectionDegrees,WindSpeedMPH,WindSpeedGustMPH,Humidity,HourlyPrecipIn,Conditions,Clouds,dailyrainin,SoftwareType,DateUTC
2013-04-26 00:11:00,28.6,23.0,30.04,SW,233,0.0,1.0,79,0.00,,,0.00,weatherlink.com 1.10,2013-04-26 06:11:00,
2013-04-26 00:26:00,28.3,23.0,30.05,SW,233,0.0,0.0,79,0.00,,,0.00,weatherlink.com 1.10,2013-04-26 06:26:00,
2013-04-26 00:41:00,27.9,22.0,30.05,SW,233,0.0,1.0,79,0.00,,,0.00,weatherlink.com 1.10,2013-04-26 06:41:00,
2013-04-26 00:56:00,27.4,22.0,30.05,SW,233,0.0,0.0,81,0.00,,,0.00,weatherlink.com 1.10,2013-04-26 06:56:00,
2013-04-26 01:11:00,27.2,22.0,30.05,SW,233,0.0,1.0,82,0.00,,,0.00,weatherlink.com 1.10,2013-04-26 07:11:00,
2013-04-26 01:26:00,27.0,22.0,30.05,SW,233,0.0,1.0,82,0.00,,,0.00,weatherlink.com 1.10,2013-04-26 07:26:00,
2013-04-26 01:41:00,26.7,22.0,30.05,SW,233,0.0,0.0,82,0.00,,,0.00,weatherlink.com 1.10,2013-04-26 07:41:00,
2013-04-26 01:56:00,26.1,22.0,30.05,SW,233,0.0,0.0,83,0.00,,,0.00,weatherlink.com 1.10,2013-04-26 07:56:00,
2013-04-26 02:11:00,26.1,22.0,30.05,SW,233,0.0,1.0,84,0.00,,,0.00,weatherlink.com 1.10,2013-04-26 08:11:00,
2013-04-26 02:26:00,26.2,22.0,30.06,SW,235,0.0,1.0,83,0.00,,,0.00,weatherlink.com 1.10,2013-04-26 08:26:00,
2013-04-26 02:41:00,25.8,21.0,30.06,SW,235,0.0,0.0,83,0.00,,,0.00,weatherlink.com 1.10,2013-04-26 08:41:00,
2013-04-26 02:56:00,25.4,21.0,30.06,SW,235,0.0,1.0,84,0.00,,,0.00,weatherlink.com 1.10,2013-04-26 08:56:00,
2013-04-26 03:11:00,25.1,21.0,30.06,SW,235,0.0,1.0,84,0.00,,,0.00,weatherlink.com 1.10,2013-04-26 09:11:00,
2013-04-26 03:26:00,25.0,21.0,30.06,West,269,0.0,1.0,83,0.00,,,0.00,weatherlink.com 1.10,2013-04-26 09:26:00,
2013-04-26 03:41:00,24.5,20.0,30.06,West,269,0.0,1.0,84,0.00,,,0.00,weatherlink.com 1.10,2013-04-26 09:41:00,
2013-04-26 03:56:00,24.2,20.0,30.07,West,268,0.0,1.0,84,0.00,,,0.00,weatherlink.com 1.10,2013-04-26 09:56:00,
2013-04-26 04:12:00,23.8,20.0,30.07,West,268,0.0,1.0,85,0.00,,,0.00,weatherlink.com 1.10,2013-04-26 10:12:00,
2013-04-26 04:27:00,23.5,20.0,30.07,West,268,0.0,1.0,85,0.00,,,0.00,weatherlink.com 1.10,2013-04-26 10:27:00,
2013-04-26 04:42:00,23.2,19.0,30.07,West,268,0.0,1.0,85,0.00,,,0.00,weatherlink.com 1.10,2013-04-26 10:42:00,
2013-04-26 04:57:00,22.8,19.0,30.07,West,267,0.0,1.0,86,0.00,,,0.00,weatherlink.com 1.10,2013-04-26 10:57:00,
2013-04-26 05:12:00,22.5,19.0,30.08,West,266,0.0,1.0,86,0.00,,,0.00,weatherlink.com 1.10,2013-04-26 11:12:00,
2013-04-26 05:27:00,22.2,19.0,30.08,West,264,0.0,1.0,86,0.00,,,0.00,weatherlink.com 1.10,2013-04-26 11:27:00,
2013-04-26 05:42:00,21.9,18.0,30.08,West,264,0.0,1.0,86,0.00,,,0.00,weatherlink.com 1.10,2013-04-26 11:42:00,
2013-04-26 05:57:00,21.6,18.0,30.08,West,264,0.0,1.0,86,0.00,,,0.00,weatherlink.com 1.10,2013-04-26 11:57:00,
2013-04-26 06:12:00,21.3,18.0,30.09,WSW,257,0.0,1.0,86,0.00,,,0.00,weatherlink.com 1.10,2013-04-26 12:12:00,
2013-04-26 06:27:00,21.4,18.0,30.09,WSW,256,0.0,1.0,86,0.00,,,0.00,weatherlink.com 1.10,2013-04-26 12:27:00,
2013-04-26 06:42:00,20.9,18.0,30.10,WSW,256,0.0,0.0,87,0.00,,,0.00,weatherlink.com 1.10,2013-04-26 12:42:00,
2013-04-26 06:57:00,20.8,18.0,30.11,WSW,256,0.0,1.0,87,0.00,,,0.00,weatherlink.com 1.10,2013-04-26 12:57:00,
2013-04-26 07:12:00,21.1,18.0,30.11,WSW,256,0.0,1.0,88,0.00,,,0.00,weatherlink.com 1.10,2013-04-26 13:12:00,
2013-04-26 07:27:00,22.4,19.0,30.12,WSW,256,0.0,1.0,85,0.00,,,0.00,weatherlink.com 1.10,2013-04-26 13:27:00,
2013-04-26 07:42:00,23.8,20.0,30.12,WSW,256,0.0,1.0,84,0.00,,,0.00,weatherlink.com 1.10,2013-04-26 13:42:00,
2013-04-26 07:57:00,25.0,21.0,30.13,WSW,256,0.0,1.0,84,0.00,,,0.00,weatherlink.com 1.10,2013-04-26 13:57:00,
2013-04-26 08:12:00,26.1,21.0,30.13,WSW,256,0.0,0.0,81,0.00,,,0.00,weatherlink.com 1.10,2013-04-26 14:12:00,
2013-04-26 08:27:00,27.5,21.0,30.13,WSW,256,0.0,0.0,77,0.00,,,0.00,weatherlink.com 1.10,2013-04-26 14:27:00,
2013-04-26 08:42:00,31.6,20.0,30.13,ESE,116,0.0,1.0,62,0.00,,,0.00,weatherlink.com 1.10,2013-04-26 14:42:00,
2013-04-26 08:57:00,34.3,20.0,30.13,ESE,113,0.0,4.0,56,0.00,,,0.00,weatherlink.com 1.10,2013-04-26 14:57:00,
2013-04-26 09:12:00,36.5,21.0,30.13,East,94,4.0,4.0,54,0.00,,,0.00,weatherlink.com 1.10,2013-04-26 15:12:00,
2013-04-26 09:27:00,38.9,21.0,30.13,ESE,103,3.0,4.0,48,0.00,,,0.00,weatherlink.com 1.10,2013-04-26 15:27:00,
2013-04-26 09:42:00,42.0,15.0,30.13,West,271,0.0,4.0,34,0.00,,,0.00,weatherlink.com 1.10,2013-04-26 15:42:00,
2013-04-26 09:57:00,45.2,14.0,30.13,ESE,111,1.0,5.0,28,0.00,,,0.00,weatherlink.com 1.10,2013-04-26 15:57:00,
2013-04-26 10:13:00,47.0,12.0,30.13,ESE,108,15.0,17.0,24,0.00,,,0.00,weatherlink.com 1.10,2013-04-26 16:13:00,
2013-04-26 10:28:00,45.4,9.0,30.14,East,99,4.0,8.0,23,0.00,,,0.00,weatherlink.com 1.10,2013-04-26 16:28:00,
2013-04-26 10:43:00,46.5,10.0,30.14,East,95,1.0,6.0,23,0.00,,,0.00,weatherlink.com 1.10,2013-04-26 16:43:00,
2013-04-26 10:58:00,45.9,9.0,30.15,East,101,0.0,7.0,22,0.00,,,0.00,weatherlink.com 1.10,2013-04-26 16:58:00,
2013-04-26 11:13:00,48.0,12.0,30.15,WNW,302,1.0,7.0,23,0.00,,,0.00,weatherlink.com 1.10,2013-04-26 17:13:00,
2013-04-26 11:28:00,48.9,6.0,30.15,NNE,30,1.0,3.0,17,0.00,,,0.00,weatherlink.com 1.10,2013-04-26 17:28:00,
2013-04-26 11:43:00,50.9,12.0,30.14,North,351,2.0,6.0,21,0.00,,,0.00,weatherlink.com 1.10,2013-04-26 17:43:00,
2013-04-26 11:58:00,52.4,12.0,30.14,SSW,197,0.0,10.0,20,0.00,,,0.00,weatherlink.com 1.10,2013-04-26 17:58:00,
2013-04-26 12:13:00,53.0,13.0,30.13,East,91,2.0,4.0,20,0.00,,,0.00,weatherlink.com 1.10,2013-04-26 18:13:00,
2013-04-26 12:28:00,52.6,13.0,30.13,ESE,113,0.0,8.0,21,0.00,,,0.00,weatherlink.com 1.10,2013-04-26 18:28:00,
2013-04-26 12:43:00,50.2,10.0,30.12,East,91,2.0,8.0,20,0.00,,,0.00,weatherlink.com 1.10,2013-04-26 18:43:00,
2013-04-26 12:58:00,52.3,13.0,30.12,ESE,116,7.0,9.0,21,0.00,,,0.00,weatherlink.com 1.10,2013-04-26 18:58:00,
2013-04-26 13:13:00,51.4,9.0,30.11,SSW,193,0.0,3.0,18,0.00,,,0.00,weatherlink.com 1.10,2013-04-26 19:13:00,
2013-04-26 13:28:00,52.6,9.0,30.11,NNE,27,0.0,11.0,17,0.00,,,0.00,weatherlink.com 1.10,2013-04-26 19:28:00,
2013-04-26 13:43:00,53.9,8.0,30.11,East,92,10.0,12.0,16,0.00,,,0.00,weatherlink.com 1.10,2013-04-26 19:43:00,
2013-04-26 13:58:00,51.8,9.0,30.12,East,87,3.0,10.0,18,0.00,,,0.00,weatherlink.com 1.10,2013-04-26 19:58:00,
2013-04-26 14:13:00,51.4,8.0,30.12,SE,128,1.0,9.0,17,0.00,,,0.00,weatherlink.com 1.10,2013-04-26 20:13:00,
2013-04-26 14:28:00,51.3,9.0,30.12,ESE,112,3.0,7.0,18,0.00,,,0.00,weatherlink.com 1.10,2013-04-26 20:28:00,
2013-04-26 14:43:00,50.5,6.0,30.12,East,94,2.0,6.0,16,0.00,,,0.00,weatherlink.com 1.10,2013-04-26 20:43:00,
2013-04-26 14:58:00,50.4,7.0,30.12,ESE,117,0.0,10.0,17,0.00,,,0.00,weatherlink.com 1.10,2013-04-26 20:58:00,
2013-04-26 15:13:00,50.0,8.0,30.12,ESE,113,3.0,7.0,18,0.00,,,0.00,weatherlink.com 1.10,2013-04-26 21:13:00,
2013-04-26 15:28:00,49.5,10.0,30.13,ESE,112,0.0,7.0,20,0.00,,,0.00,weatherlink.com 1.10,2013-04-26 21:28:00,
2013-04-26 15:43:00,48.8,11.0,30.13,SSE,156,1.0,9.0,22,0.00,,,0.00,weatherlink.com 1.10,2013-04-26 21:43:00,
2013-04-26 15:58:00,50.0,9.0,30.13,ESE,105,5.0,9.0,19,0.00,,,0.00,weatherlink.com 1.10,2013-04-26 21:58:00,
2013-04-26 16:13:00,49.8,9.0,30.12,ESE,114,1.0,6.0,19,0.00,,,0.00,weatherlink.com 1.10,2013-04-26 22:13:00,
2013-04-26 16:28:00,50.6,11.0,30.12,East,100,3.0,4.0,20,0.00,,,0.00,weatherlink.com 1.10,2013-04-26 22:28:00,
2013-04-26 16:43:00,51.0,12.0,30.12,ESE,107,0.0,7.0,21,0.00,,,0.00,weatherlink.com 1.10,2013-04-26 22:43:00,
2013-04-26 16:58:00,51.5,8.0,30.12,East,98,3.0,8.0,17,0.00,,,0.00,weatherlink.com 1.10,2013-04-26 22:58:00,
2013-04-26 17:13:00,52.6,9.0,30.11,ESE,113,2.0,8.0,17,0.00,,,0.00,weatherlink.com 1.10,2013-04-26 23:13:00,
2013-04-26 17:28:00,52.5,10.0,30.12,NE,55,1.0,9.0,18,0.00,,,0.00,weatherlink.com 1.10,2013-04-26 23:28:00,
2013-04-26 17:43:00,52.6,12.0,30.12,SSE,159,0.0,7.0,20,0.00,,,0.00,weatherlink.com 1.10,2013-04-26 23:43:00,
2013-04-26 18:13:00,52.2,12.0,30.14,ESE,117,0.0,5.0,20,0.00,,,0.00,weatherlink.com 1.10,2013-04-27 00:13:00,
2013-04-26 18:28:00,50.4,11.0,30.14,ESE,113,0.0,6.0,20,0.00,,,0.00,weatherlink.com 1.10,2013-04-27 00:28:00,
2013-04-26 18:43:00,49.2,11.0,30.15,ESE,117,0.0,2.0,21,0.00,,,0.00,weatherlink.com 1.10,2013-04-27 00:43:00,
2013-04-26 18:58:00,47.6,13.0,30.15,WNW,301,0.0,1.0,25,0.00,,,0.00,weatherlink.com 1.10,2013-04-27 00:58:00,
2013-04-26 19:13:00,45.2,17.0,30.16,WNW,301,0.0,0.0,33,0.00,,,0.00,weatherlink.com 1.10,2013-04-27 01:13:00,
2013-04-26 19:28:00,42.3,22.0,30.16,WNW,301,0.0,1.0,45,0.00,,,0.00,weatherlink.com 1.10,2013-04-27 01:28:00,
2013-04-26 19:43:00,40.1,19.0,30.16,WNW,300,0.0,1.0,43,0.00,,,0.00,weatherlink.com 1.10,2013-04-27 01:43:00,
2013-04-26 19:58:00,38.4,22.0,30.17,West,259,0.0,1.0,51,0.00,,,0.00,weatherlink.com 1.10,2013-04-27 01:58:00,
2013-04-26 20:13:00,36.3,22.0,30.18,WSW,255,1.0,1.0,56,0.00,,,0.00,weatherlink.com 1.10,2013-04-27 02:13:00,
2013-04-26 20:28:00,35.0,21.0,30.19,WSW,254,0.0,1.0,57,0.00,,,0.00,weatherlink.com 1.10,2013-04-27 02:28:00,
2013-04-26 20:43:00,34.2,21.0,30.20,WSW,253,0.0,1.0,60,0.00,,,0.00,weatherlink.com 1.10,2013-04-27 02:43:00,
2013-04-26 20:58:00,33.0,21.0,30.21,WSW,251,0.0,1.0,61,0.00,,,0.00,weatherlink.com 1.10,2013-04-27 02:58:00,
2013-04-26 21:13:00,32.1,21.0,30.22,WSW,251,0.0,1.0,65,0.00,,,0.00,weatherlink.com 1.10,2013-04-27 03:13:00,
2013-04-26 21:28:00,31.3,21.0,30.23,WSW,251,0.0,1.0,66,0.00,,,0.00,weatherlink.com 1.10,2013-04-27 03:28:00,
2013-04-26 21:44:00,31.3,21.0,30.24,WSW,250,0.0,1.0,67,0.00,,,0.00,weatherlink.com 1.10,2013-04-27 03:44:00,
2013-04-26 21:59:00,31.2,21.0,30.24,WSW,250,0.0,1.0,66,0.00,,,0.00,weatherlink.com 1.10,2013-04-27 03:59:00,
2013-04-26 22:14:00,31.0,21.0,30.24,WSW,250,0.0,1.0,66,0.00,,,0.00,weatherlink.com 1.10,2013-04-27 04:14:00,
2013-04-26 22:29:00,30.5,21.0,30.25,WSW,250,1.0,1.0,68,0.00,,,0.00,weatherlink.com 1.10,2013-04-27 04:29:00,
2013-04-26 22:44:00,30.4,20.0,30.25,WSW,249,1.0,1.0,66,0.00,,,0.00,weatherlink.com 1.10,2013-04-27 04:44:00,
2013-04-26 22:59:00,30.3,20.0,30.25,WSW,249,0.0,1.0,66,0.00,,,0.00,weatherlink.com 1.10,2013-04-27 04:59:00,
2013-04-26 23:14:00,29.8,21.0,30.25,WSW,238,0.0,4.0,69,0.00,,,0.00,weatherlink.com 1.10,2013-04-27 05:14:00,
2013-04-26 23:29:00,28.7,21.0,30.26,WSW,238,0.0,1.0,72,0.00,,,0.00,weatherlink.com 1.10,2013-04-27 05:29:00,
2013-04-26 23:44:00,28.3,20.0,30.27,WSW,238,0.0,1.0,71,0.00,,,0.00,weatherlink.com 1.10,2013-04-27 05:44:00,
2013-04-26 23:59:00,28.3,20.0,30.27,WSW,238,0.0,1.0,72,0.00,,,0.00,weatherlink.com 1.10,2013-04-27 05:59:00,